sensor_id;sensor_type;location;lat;lon;timestamp;pressure;altitude;pressure_sealevel;temperature
15079;BMP180;6932;51.438;5.470;2023-08-07T00:00:27;100963.00;;;18.80
15079;BMP180;6932;51.438;5.470;2023-08-07T00:02:53;100951.00;;;18.80
15079;BMP180;6932;51.438;5.470;2023-08-07T00:05:19;100950.00;;;18.80
15079;BMP180;6932;51.438;5.470;2023-08-07T00:07:45;100954.00;;;18.80
15079;BMP180;6932;51.438;5.470;2023-08-07T00:10:11;100954.00;;;18.80
15079;BMP180;6932;51.438;5.470;2023-08-07T00:12:37;100940.00;;;18.80
15079;BMP180;6932;51.438;5.470;2023-08-07T00:15:03;100951.00;;;18.90
15079;BMP180;6932;51.438;5.470;2023-08-07T00:17:29;100953.00;;;18.90
15079;BMP180;6932;51.438;5.470;2023-08-07T00:19:55;100949.00;;;18.90
15079;BMP180;6932;51.438;5.470;2023-08-07T00:22:21;100951.00;;;18.90
15079;BMP180;6932;51.438;5.470;2023-08-07T00:24:46;100944.00;;;18.90
15079;BMP180;6932;51.438;5.470;2023-08-07T00:27:12;100952.00;;;18.90
15079;BMP180;6932;51.438;5.470;2023-08-07T00:29:38;100960.00;;;18.90
15079;BMP180;6932;51.438;5.470;2023-08-07T00:32:05;100954.00;;;19.00
15079;BMP180;6932;51.438;5.470;2023-08-07T00:34:31;100957.00;;;19.00
15079;BMP180;6932;51.438;5.470;2023-08-07T00:36:56;100960.00;;;19.00
15079;BMP180;6932;51.438;5.470;2023-08-07T00:39:23;100963.00;;;19.00
15079;BMP180;6932;51.438;5.470;2023-08-07T00:41:49;100978.00;;;19.00
15079;BMP180;6932;51.438;5.470;2023-08-07T00:44:15;100968.00;;;19.10
15079;BMP180;6932;51.438;5.470;2023-08-07T00:46:41;100975.00;;;19.10
15079;BMP180;6932;51.438;5.470;2023-08-07T00:49:11;100975.00;;;19.10
15079;BMP180;6932;51.438;5.470;2023-08-07T00:51:39;100975.00;;;19.10
15079;BMP180;6932;51.438;5.470;2023-08-07T00:54:07;100973.00;;;19.00
15079;BMP180;6932;51.438;5.470;2023-08-07T00:56:35;100983.00;;;19.00
15079;BMP180;6932;51.438;5.470;2023-08-07T00:59:01;100973.00;;;19.00
15079;BMP180;6932;51.438;5.470;2023-08-07T01:01:27;100977.00;;;18.90
15079;BMP180;6932;51.438;5.470;2023-08-07T01:03:53;100981.00;;;18.90
15079;BMP180;6932;51.438;5.470;2023-08-07T01:06:19;100981.00;;;18.90
15079;BMP180;6932;51.438;5.470;2023-08-07T01:08:46;100997.00;;;18.90
15079;BMP180;6932;51.438;5.470;2023-08-07T01:11:41;100982.00;;;18.70
15079;BMP180;6932;51.438;5.470;2023-08-07T01:17:22;100983.00;;;18.70
15079;BMP180;6932;51.438;5.470;2023-08-07T01:19:51;100983.00;;;18.70
15079;BMP180;6932;51.438;5.470;2023-08-07T01:22:19;100983.00;;;18.70
15079;BMP180;6932;51.438;5.470;2023-08-07T01:24:48;100991.00;;;18.70
15079;BMP180;6932;51.438;5.470;2023-08-07T01:30:21;100985.00;;;18.60
15079;BMP180;6932;51.438;5.470;2023-08-07T01:33:09;100982.00;;;18.60
15079;BMP180;6932;51.438;5.470;2023-08-07T01:35:41;100985.00;;;18.60
15079;BMP180;6932;51.438;5.470;2023-08-07T01:38:10;100985.00;;;18.60
15079;BMP180;6932;51.438;5.470;2023-08-07T01:40:38;100980.00;;;18.60
15079;BMP180;6932;51.438;5.470;2023-08-07T01:43:05;100988.00;;;18.70
15079;BMP180;6932;51.438;5.470;2023-08-07T01:45:31;100992.00;;;18.70
15079;BMP180;6932;51.438;5.470;2023-08-07T01:47:57;100999.00;;;18.70
15079;BMP180;6932;51.438;5.470;2023-08-07T01:50:24;101002.00;;;18.70
15079;BMP180;6932;51.438;5.470;2023-08-07T01:52:50;100995.00;;;18.80
15079;BMP180;6932;51.438;5.470;2023-08-07T01:55:18;100997.00;;;18.80
15079;BMP180;6932;51.438;5.470;2023-08-07T01:57:44;101008.00;;;18.80
15079;BMP180;6932;51.438;5.470;2023-08-07T02:00:10;101008.00;;;18.80
15079;BMP180;6932;51.438;5.470;2023-08-07T02:02:37;101020.00;;;18.80
15079;BMP180;6932;51.438;5.470;2023-08-07T02:05:04;101027.00;;;18.80
15079;BMP180;6932;51.438;5.470;2023-08-07T02:07:31;101010.00;;;18.80
15079;BMP180;6932;51.438;5.470;2023-08-07T02:09:57;101013.00;;;18.80
15079;BMP180;6932;51.438;5.470;2023-08-07T02:12:24;101011.00;;;18.80
15079;BMP180;6932;51.438;5.470;2023-08-07T02:14:51;101019.00;;;18.80
15079;BMP180;6932;51.438;5.470;2023-08-07T02:17:16;101005.00;;;18.70
15079;BMP180;6932;51.438;5.470;2023-08-07T02:19:42;101010.00;;;18.70
15079;BMP180;6932;51.438;5.470;2023-08-07T02:22:09;101013.00;;;18.70
15079;BMP180;6932;51.438;5.470;2023-08-07T02:24:35;101017.00;;;18.70
15079;BMP180;6932;51.438;5.470;2023-08-07T02:27:00;101016.00;;;18.70
15079;BMP180;6932;51.438;5.470;2023-08-07T02:29:26;101013.00;;;18.70
15079;BMP180;6932;51.438;5.470;2023-08-07T02:31:52;101019.00;;;18.70
15079;BMP180;6932;51.438;5.470;2023-08-07T02:34:18;101018.00;;;18.70
15079;BMP180;6932;51.438;5.470;2023-08-07T02:36:43;101027.00;;;18.70
15079;BMP180;6932;51.438;5.470;2023-08-07T02:39:09;101021.00;;;18.70
15079;BMP180;6932;51.438;5.470;2023-08-07T02:41:35;101014.00;;;18.70
15079;BMP180;6932;51.438;5.470;2023-08-07T02:44:00;101020.00;;;18.70
15079;BMP180;6932;51.438;5.470;2023-08-07T02:46:26;101012.00;;;18.70
15079;BMP180;6932;51.438;5.470;2023-08-07T02:48:52;101015.00;;;18.60
15079;BMP180;6932;51.438;5.470;2023-08-07T02:51:19;101004.00;;;18.60
15079;BMP180;6932;51.438;5.470;2023-08-07T02:53:44;101001.00;;;18.60
15079;BMP180;6932;51.438;5.470;2023-08-07T02:56:10;101005.00;;;18.60
15079;BMP180;6932;51.438;5.470;2023-08-07T02:58:36;101005.00;;;18.60
15079;BMP180;6932;51.438;5.470;2023-08-07T03:01:05;101012.00;;;18.60
15079;BMP180;6932;51.438;5.470;2023-08-07T03:03:34;101004.00;;;18.60
15079;BMP180;6932;51.438;5.470;2023-08-07T03:06:01;101012.00;;;18.60
15079;BMP180;6932;51.438;5.470;2023-08-07T03:08:26;101005.00;;;18.60
15079;BMP180;6932;51.438;5.470;2023-08-07T03:10:57;101007.00;;;18.60
15079;BMP180;6932;51.438;5.470;2023-08-07T03:13:25;101007.00;;;18.60
15079;BMP180;6932;51.438;5.470;2023-08-07T03:16:02;101012.00;;;18.60
15079;BMP180;6932;51.438;5.470;2023-08-07T03:18:29;101008.00;;;18.60
15079;BMP180;6932;51.438;5.470;2023-08-07T03:20:56;101019.00;;;18.60
15079;BMP180;6932;51.438;5.470;2023-08-07T03:23:26;101015.00;;;18.60
15079;BMP180;6932;51.438;5.470;2023-08-07T03:26:09;101013.00;;;18.60
15079;BMP180;6932;51.438;5.470;2023-08-07T03:28:36;101008.00;;;18.60
15079;BMP180;6932;51.438;5.470;2023-08-07T03:31:03;101006.00;;;18.60
15079;BMP180;6932;51.438;5.470;2023-08-07T03:33:29;101008.00;;;18.60
15079;BMP180;6932;51.438;5.470;2023-08-07T03:35:55;101008.00;;;18.70
15079;BMP180;6932;51.438;5.470;2023-08-07T03:38:20;101007.00;;;18.70
15079;BMP180;6932;51.438;5.470;2023-08-07T03:40:46;100999.00;;;18.70
15079;BMP180;6932;51.438;5.470;2023-08-07T03:43:12;100995.00;;;18.70
15079;BMP180;6932;51.438;5.470;2023-08-07T03:45:39;100996.00;;;18.70
15079;BMP180;6932;51.438;5.470;2023-08-07T03:48:05;100999.00;;;18.70
15079;BMP180;6932;51.438;5.470;2023-08-07T03:50:31;100997.00;;;18.70
15079;BMP180;6932;51.438;5.470;2023-08-07T03:53:00;100995.00;;;18.70
15079;BMP180;6932;51.438;5.470;2023-08-07T03:55:27;100995.00;;;18.70
15079;BMP180;6932;51.438;5.470;2023-08-07T03:57:52;100991.00;;;18.80
15079;BMP180;6932;51.438;5.470;2023-08-07T04:00:18;100990.00;;;18.80
15079;BMP180;6932;51.438;5.470;2023-08-07T04:02:44;100989.00;;;18.80
15079;BMP180;6932;51.438;5.470;2023-08-07T04:05:10;100986.00;;;18.80
15079;BMP180;6932;51.438;5.470;2023-08-07T04:07:36;100990.00;;;18.80
15079;BMP180;6932;51.438;5.470;2023-08-07T04:10:02;100999.00;;;18.90
15079;BMP180;6932;51.438;5.470;2023-08-07T04:12:28;100996.00;;;18.90
15079;BMP180;6932;51.438;5.470;2023-08-07T04:14:53;101001.00;;;18.90
15079;BMP180;6932;51.438;5.470;2023-08-07T04:17:19;101005.00;;;18.90
15079;BMP180;6932;51.438;5.470;2023-08-07T04:19:45;101015.00;;;18.90
15079;BMP180;6932;51.438;5.470;2023-08-07T04:22:11;101011.00;;;18.90
15079;BMP180;6932;51.438;5.470;2023-08-07T04:24:36;101017.00;;;19.00
15079;BMP180;6932;51.438;5.470;2023-08-07T04:27:02;101012.00;;;19.00
15079;BMP180;6932;51.438;5.470;2023-08-07T04:29:28;101008.00;;;19.00
15079;BMP180;6932;51.438;5.470;2023-08-07T04:31:54;101015.00;;;19.00
15079;BMP180;6932;51.438;5.470;2023-08-07T04:34:20;101016.00;;;19.00
15079;BMP180;6932;51.438;5.470;2023-08-07T04:36:45;101024.00;;;19.00
15079;BMP180;6932;51.438;5.470;2023-08-07T04:39:11;101026.00;;;19.00
15079;BMP180;6932;51.438;5.470;2023-08-07T04:41:39;101028.00;;;19.00
15079;BMP180;6932;51.438;5.470;2023-08-07T04:44:04;101023.00;;;19.00
15079;BMP180;6932;51.438;5.470;2023-08-07T04:46:30;101025.00;;;19.00
15079;BMP180;6932;51.438;5.470;2023-08-07T04:48:56;101032.00;;;19.00
15079;BMP180;6932;51.438;5.470;2023-08-07T04:51:22;101024.00;;;19.00
15079;BMP180;6932;51.438;5.470;2023-08-07T04:53:48;101024.00;;;19.00
15079;BMP180;6932;51.438;5.470;2023-08-07T04:56:16;101016.00;;;19.00
15079;BMP180;6932;51.438;5.470;2023-08-07T04:58:42;101025.00;;;19.00
15079;BMP180;6932;51.438;5.470;2023-08-07T05:01:08;101016.00;;;19.00
15079;BMP180;6932;51.438;5.470;2023-08-07T05:03:34;101030.00;;;19.00
15079;BMP180;6932;51.438;5.470;2023-08-07T05:06:01;101029.00;;;19.00
15079;BMP180;6932;51.438;5.470;2023-08-07T05:08:27;101030.00;;;19.00
15079;BMP180;6932;51.438;5.470;2023-08-07T05:10:53;101038.00;;;19.00
15079;BMP180;6932;51.438;5.470;2023-08-07T05:13:19;101041.00;;;19.00
15079;BMP180;6932;51.438;5.470;2023-08-07T05:15:47;101028.00;;;19.00
15079;BMP180;6932;51.438;5.470;2023-08-07T05:18:14;101041.00;;;19.10
15079;BMP180;6932;51.438;5.470;2023-08-07T05:20:40;101036.00;;;19.10
15079;BMP180;6932;51.438;5.470;2023-08-07T05:23:06;101036.00;;;19.00
15079;BMP180;6932;51.438;5.470;2023-08-07T05:25:32;101050.00;;;19.00
15079;BMP180;6932;51.438;5.470;2023-08-07T05:27:58;101063.00;;;19.00
15079;BMP180;6932;51.438;5.470;2023-08-07T05:30:23;101043.00;;;19.00
15079;BMP180;6932;51.438;5.470;2023-08-07T05:32:49;101056.00;;;19.00
15079;BMP180;6932;51.438;5.470;2023-08-07T05:35:15;101059.00;;;19.00
15079;BMP180;6932;51.438;5.470;2023-08-07T05:37:40;101053.00;;;19.00
15079;BMP180;6932;51.438;5.470;2023-08-07T05:40:07;101068.00;;;19.00
15079;BMP180;6932;51.438;5.470;2023-08-07T05:42:33;101064.00;;;19.00
15079;BMP180;6932;51.438;5.470;2023-08-07T05:45:00;101076.00;;;19.00
15079;BMP180;6932;51.438;5.470;2023-08-07T05:47:26;101077.00;;;19.00
15079;BMP180;6932;51.438;5.470;2023-08-07T05:49:52;101075.00;;;19.00
15079;BMP180;6932;51.438;5.470;2023-08-07T05:52:18;101088.00;;;19.00
15079;BMP180;6932;51.438;5.470;2023-08-07T05:54:44;101083.00;;;19.00
15079;BMP180;6932;51.438;5.470;2023-08-07T05:57:10;101071.00;;;19.00
15079;BMP180;6932;51.438;5.470;2023-08-07T05:59:36;101080.00;;;19.00
15079;BMP180;6932;51.438;5.470;2023-08-07T06:02:03;101086.00;;;19.00
15079;BMP180;6932;51.438;5.470;2023-08-07T06:04:29;101084.00;;;19.00
15079;BMP180;6932;51.438;5.470;2023-08-07T06:06:54;101081.00;;;19.10
15079;BMP180;6932;51.438;5.470;2023-08-07T06:09:21;101084.00;;;19.10
15079;BMP180;6932;51.438;5.470;2023-08-07T06:11:48;101088.00;;;19.10
15079;BMP180;6932;51.438;5.470;2023-08-07T06:14:14;101082.00;;;19.10
15079;BMP180;6932;51.438;5.470;2023-08-07T06:16:40;101093.00;;;19.10
15079;BMP180;6932;51.438;5.470;2023-08-07T06:19:05;101087.00;;;19.10
15079;BMP180;6932;51.438;5.470;2023-08-07T06:21:31;101086.00;;;19.20
15079;BMP180;6932;51.438;5.470;2023-08-07T06:23:57;101089.00;;;19.20
15079;BMP180;6932;51.438;5.470;2023-08-07T06:26:23;101091.00;;;19.20
15079;BMP180;6932;51.438;5.470;2023-08-07T06:28:48;101104.00;;;19.30
15079;BMP180;6932;51.438;5.470;2023-08-07T06:31:16;101102.00;;;19.30
15079;BMP180;6932;51.438;5.470;2023-08-07T06:33:42;101111.00;;;19.30
15079;BMP180;6932;51.438;5.470;2023-08-07T06:36:08;101109.00;;;19.30
15079;BMP180;6932;51.438;5.470;2023-08-07T06:38:36;101108.00;;;19.30
15079;BMP180;6932;51.438;5.470;2023-08-07T06:41:02;101118.00;;;19.40
15079;BMP180;6932;51.438;5.470;2023-08-07T06:43:28;101110.00;;;19.40
15079;BMP180;6932;51.438;5.470;2023-08-07T06:45:56;101101.00;;;19.50
15079;BMP180;6932;51.438;5.470;2023-08-07T06:48:22;101111.00;;;19.50
15079;BMP180;6932;51.438;5.470;2023-08-07T06:50:51;101131.00;;;19.60
15079;BMP180;6932;51.438;5.470;2023-08-07T06:53:17;101129.00;;;19.60
15079;BMP180;6932;51.438;5.470;2023-08-07T06:55:44;101118.00;;;19.70
15079;BMP180;6932;51.438;5.470;2023-08-07T06:58:10;101125.00;;;19.70
15079;BMP180;6932;51.438;5.470;2023-08-07T07:00:36;101133.00;;;19.80
15079;BMP180;6932;51.438;5.470;2023-08-07T07:03:04;101133.00;;;19.80
15079;BMP180;6932;51.438;5.470;2023-08-07T07:05:30;101131.00;;;19.80
15079;BMP180;6932;51.438;5.470;2023-08-07T07:07:57;101138.00;;;19.80
15079;BMP180;6932;51.438;5.470;2023-08-07T07:10:23;101132.00;;;19.90
15079;BMP180;6932;51.438;5.470;2023-08-07T07:12:49;101138.00;;;19.90
15079;BMP180;6932;51.438;5.470;2023-08-07T07:15:15;101145.00;;;20.00
15079;BMP180;6932;51.438;5.470;2023-08-07T07:17:42;101143.00;;;20.00
15079;BMP180;6932;51.438;5.470;2023-08-07T07:20:08;101141.00;;;20.10
15079;BMP180;6932;51.438;5.470;2023-08-07T07:22:35;101145.00;;;20.30
15079;BMP180;6932;51.438;5.470;2023-08-07T07:25:01;101143.00;;;20.40
15079;BMP180;6932;51.438;5.470;2023-08-07T07:27:27;101155.00;;;20.60
15079;BMP180;6932;51.438;5.470;2023-08-07T07:29:53;101146.00;;;20.90
15079;BMP180;6932;51.438;5.470;2023-08-07T07:32:19;101148.00;;;21.10
15079;BMP180;6932;51.438;5.470;2023-08-07T07:34:45;101154.00;;;21.20
15079;BMP180;6932;51.438;5.470;2023-08-07T07:37:10;101162.00;;;21.30
15079;BMP180;6932;51.438;5.470;2023-08-07T07:39:36;101169.00;;;21.40
15079;BMP180;6932;51.438;5.470;2023-08-07T07:42:02;101169.00;;;21.30
15079;BMP180;6932;51.438;5.470;2023-08-07T07:44:30;101168.00;;;21.30
15079;BMP180;6932;51.438;5.470;2023-08-07T07:46:56;101179.00;;;21.30
15079;BMP180;6932;51.438;5.470;2023-08-07T07:49:22;101183.00;;;21.20
15079;BMP180;6932;51.438;5.470;2023-08-07T07:51:48;101180.00;;;21.20
15079;BMP180;6932;51.438;5.470;2023-08-07T07:54:15;101176.00;;;21.20
15079;BMP180;6932;51.438;5.470;2023-08-07T07:56:42;101172.00;;;21.20
15079;BMP180;6932;51.438;5.470;2023-08-07T07:59:08;101177.00;;;21.20
15079;BMP180;6932;51.438;5.470;2023-08-07T08:01:33;101171.00;;;21.20
15079;BMP180;6932;51.438;5.470;2023-08-07T08:03:59;101182.00;;;21.30
15079;BMP180;6932;51.438;5.470;2023-08-07T08:06:25;101181.00;;;21.40
15079;BMP180;6932;51.438;5.470;2023-08-07T08:08:50;101188.00;;;21.40
15079;BMP180;6932;51.438;5.470;2023-08-07T08:11:16;101192.00;;;21.50
15079;BMP180;6932;51.438;5.470;2023-08-07T08:13:42;101201.00;;;21.50
15079;BMP180;6932;51.438;5.470;2023-08-07T08:16:07;101194.00;;;21.70
15079;BMP180;6932;51.438;5.470;2023-08-07T08:18:33;101199.00;;;21.80
15079;BMP180;6932;51.438;5.470;2023-08-07T08:20:59;101197.00;;;21.90
15079;BMP180;6932;51.438;5.470;2023-08-07T08:23:25;101210.00;;;22.10
15079;BMP180;6932;51.438;5.470;2023-08-07T08:25:50;101210.00;;;22.20
15079;BMP180;6932;51.438;5.470;2023-08-07T08:28:17;101202.00;;;22.40
15079;BMP180;6932;51.438;5.470;2023-08-07T08:30:43;101203.00;;;22.60
15079;BMP180;6932;51.438;5.470;2023-08-07T08:33:09;101197.00;;;22.80
15079;BMP180;6932;51.438;5.470;2023-08-07T08:35:38;101202.00;;;23.00
15079;BMP180;6932;51.438;5.470;2023-08-07T08:38:04;101209.00;;;23.20
15079;BMP180;6932;51.438;5.470;2023-08-07T08:40:31;101199.00;;;23.30
15079;BMP180;6932;51.438;5.470;2023-08-07T08:43:00;101198.00;;;23.30
15079;BMP180;6932;51.438;5.470;2023-08-07T08:45:27;101207.00;;;23.40
15079;BMP180;6932;51.438;5.470;2023-08-07T08:48:01;101213.00;;;23.50
15079;BMP180;6932;51.438;5.470;2023-08-07T08:50:28;101202.00;;;23.50
15079;BMP180;6932;51.438;5.470;2023-08-07T08:52:56;101209.00;;;23.50
15079;BMP180;6932;51.438;5.470;2023-08-07T08:55:23;101216.00;;;23.40
15079;BMP180;6932;51.438;5.470;2023-08-07T08:57:50;101218.00;;;23.40
15079;BMP180;6932;51.438;5.470;2023-08-07T09:00:16;101214.00;;;23.40
15079;BMP180;6932;51.438;5.470;2023-08-07T09:02:48;101215.00;;;23.50
15079;BMP180;6932;51.438;5.470;2023-08-07T09:05:16;101197.00;;;23.60
15079;BMP180;6932;51.438;5.470;2023-08-07T09:07:42;101215.00;;;23.70
15079;BMP180;6932;51.438;5.470;2023-08-07T09:10:10;101219.00;;;23.90
15079;BMP180;6932;51.438;5.470;2023-08-07T09:12:51;101232.00;;;23.90
15079;BMP180;6932;51.438;5.470;2023-08-07T09:15:19;101218.00;;;24.00
15079;BMP180;6932;51.438;5.470;2023-08-07T09:17:46;101230.00;;;23.90
15079;BMP180;6932;51.438;5.470;2023-08-07T09:20:12;101230.00;;;23.90
15079;BMP180;6932;51.438;5.470;2023-08-07T09:22:41;101224.00;;;23.90
15079;BMP180;6932;51.438;5.470;2023-08-07T09:25:07;101237.00;;;23.90
15079;BMP180;6932;51.438;5.470;2023-08-07T09:27:37;101236.00;;;23.90
15079;BMP180;6932;51.438;5.470;2023-08-07T09:30:06;101233.00;;;23.80
15079;BMP180;6932;51.438;5.470;2023-08-07T09:32:34;101243.00;;;23.70
15079;BMP180;6932;51.438;5.470;2023-08-07T09:35:03;101233.00;;;23.80
15079;BMP180;6932;51.438;5.470;2023-08-07T09:37:30;101253.00;;;23.80
15079;BMP180;6932;51.438;5.470;2023-08-07T09:39:56;101246.00;;;23.90
15079;BMP180;6932;51.438;5.470;2023-08-07T09:42:22;101249.00;;;24.00
15079;BMP180;6932;51.438;5.470;2023-08-07T09:44:48;101251.00;;;24.10
15079;BMP180;6932;51.438;5.470;2023-08-07T09:47:18;101253.00;;;24.20
15079;BMP180;6932;51.438;5.470;2023-08-07T09:49:45;101249.00;;;24.40
15079;BMP180;6932;51.438;5.470;2023-08-07T09:52:14;101246.00;;;24.40
15079;BMP180;6932;51.438;5.470;2023-08-07T09:54:41;101249.00;;;24.50
15079;BMP180;6932;51.438;5.470;2023-08-07T09:57:07;101257.00;;;24.60
15079;BMP180;6932;51.438;5.470;2023-08-07T09:59:34;101249.00;;;24.70
15079;BMP180;6932;51.438;5.470;2023-08-07T10:02:02;101256.00;;;24.80
15079;BMP180;6932;51.438;5.470;2023-08-07T10:04:30;101258.00;;;24.80
15079;BMP180;6932;51.438;5.470;2023-08-07T10:06:56;101260.00;;;24.80
15079;BMP180;6932;51.438;5.470;2023-08-07T10:09:23;101268.00;;;24.70
15079;BMP180;6932;51.438;5.470;2023-08-07T10:11:52;101269.00;;;24.60
15079;BMP180;6932;51.438;5.470;2023-08-07T10:14:18;101281.00;;;24.60
15079;BMP180;6932;51.438;5.470;2023-08-07T10:16:45;101271.00;;;24.60
15079;BMP180;6932;51.438;5.470;2023-08-07T10:19:12;101276.00;;;24.60
15079;BMP180;6932;51.438;5.470;2023-08-07T10:21:41;101279.00;;;24.60
15079;BMP180;6932;51.438;5.470;2023-08-07T10:24:10;101270.00;;;24.70
15079;BMP180;6932;51.438;5.470;2023-08-07T10:26:42;101279.00;;;24.70
15079;BMP180;6932;51.438;5.470;2023-08-07T10:29:13;101274.00;;;24.80
15079;BMP180;6932;51.438;5.470;2023-08-07T10:31:42;101284.00;;;24.90
15079;BMP180;6932;51.438;5.470;2023-08-07T10:34:09;101277.00;;;25.00
15079;BMP180;6932;51.438;5.470;2023-08-07T10:36:36;101281.00;;;25.10
15079;BMP180;6932;51.438;5.470;2023-08-07T10:39:10;101285.00;;;25.10
15079;BMP180;6932;51.438;5.470;2023-08-07T10:41:42;101291.00;;;25.20
15079;BMP180;6932;51.438;5.470;2023-08-07T10:44:21;101283.00;;;25.20
15079;BMP180;6932;51.438;5.470;2023-08-07T10:46:56;101291.00;;;25.20
15079;BMP180;6932;51.438;5.470;2023-08-07T10:49:42;101301.00;;;25.10
15079;BMP180;6932;51.438;5.470;2023-08-07T10:52:13;101300.00;;;25.10
15079;BMP180;6932;51.438;5.470;2023-08-07T10:54:48;101306.00;;;25.10
15079;BMP180;6932;51.438;5.470;2023-08-07T10:57:16;101308.00;;;25.00
15079;BMP180;6932;51.438;5.470;2023-08-07T11:00:02;101319.00;;;24.90
15079;BMP180;6932;51.438;5.470;2023-08-07T11:02:31;101327.00;;;24.90
15079;BMP180;6932;51.438;5.470;2023-08-07T11:05:03;101313.00;;;24.90
15079;BMP180;6932;51.438;5.470;2023-08-07T11:07:30;101307.00;;;25.00
15079;BMP180;6932;51.438;5.470;2023-08-07T11:09:58;101299.00;;;25.10
15079;BMP180;6932;51.438;5.470;2023-08-07T11:12:28;101304.00;;;25.10
15079;BMP180;6932;51.438;5.470;2023-08-07T11:14:58;101304.00;;;25.20
15079;BMP180;6932;51.438;5.470;2023-08-07T11:17:26;101298.00;;;25.30
15079;BMP180;6932;51.438;5.470;2023-08-07T11:19:53;101307.00;;;25.40
15079;BMP180;6932;51.438;5.470;2023-08-07T11:22:20;101303.00;;;25.40
15079;BMP180;6932;51.438;5.470;2023-08-07T11:24:47;101301.00;;;25.50
15079;BMP180;6932;51.438;5.470;2023-08-07T11:27:13;101306.00;;;25.40
15079;BMP180;6932;51.438;5.470;2023-08-07T11:29:39;101304.00;;;25.30
15079;BMP180;6932;51.438;5.470;2023-08-07T11:32:05;101301.00;;;25.30
15079;BMP180;6932;51.438;5.470;2023-08-07T11:34:31;101306.00;;;25.20
15079;BMP180;6932;51.438;5.470;2023-08-07T11:36:57;101322.00;;;25.10
15079;BMP180;6932;51.438;5.470;2023-08-07T11:39:24;101323.00;;;25.10
15079;BMP180;6932;51.438;5.470;2023-08-07T11:41:53;101321.00;;;25.10
15079;BMP180;6932;51.438;5.470;2023-08-07T11:44:19;101318.00;;;25.20
15079;BMP180;6932;51.438;5.470;2023-08-07T11:46:45;101325.00;;;25.20
15079;BMP180;6932;51.438;5.470;2023-08-07T11:49:12;101310.00;;;25.20
15079;BMP180;6932;51.438;5.470;2023-08-07T11:51:38;101319.00;;;25.10
15079;BMP180;6932;51.438;5.470;2023-08-07T11:54:04;101318.00;;;25.10
15079;BMP180;6932;51.438;5.470;2023-08-07T11:56:30;101310.00;;;25.10
15079;BMP180;6932;51.438;5.470;2023-08-07T11:58:57;101306.00;;;25.00
15079;BMP180;6932;51.438;5.470;2023-08-07T12:01:26;101306.00;;;25.00
15079;BMP180;6932;51.438;5.470;2023-08-07T12:06:34;101295.00;;;24.90
15079;BMP180;6932;51.438;5.470;2023-08-07T12:09:02;101304.00;;;24.90
15079;BMP180;6932;51.438;5.470;2023-08-07T12:11:31;101309.00;;;24.80
15079;BMP180;6932;51.438;5.470;2023-08-07T12:14:00;101319.00;;;24.80
15079;BMP180;6932;51.438;5.470;2023-08-07T12:16:34;101311.00;;;24.80
15079;BMP180;6932;51.438;5.470;2023-08-07T12:19:01;101315.00;;;24.90
15079;BMP180;6932;51.438;5.470;2023-08-07T12:21:28;101318.00;;;25.00
15079;BMP180;6932;51.438;5.470;2023-08-07T12:23:56;101328.00;;;25.00
15079;BMP180;6932;51.438;5.470;2023-08-07T12:26:23;101327.00;;;25.00
15079;BMP180;6932;51.438;5.470;2023-08-07T12:28:49;101337.00;;;24.90
15079;BMP180;6932;51.438;5.470;2023-08-07T12:31:15;101343.00;;;24.70
15079;BMP180;6932;51.438;5.470;2023-08-07T12:33:43;101343.00;;;24.50
15079;BMP180;6932;51.438;5.470;2023-08-07T12:36:08;101341.00;;;24.40
15079;BMP180;6932;51.438;5.470;2023-08-07T12:38:35;101338.00;;;24.30
15079;BMP180;6932;51.438;5.470;2023-08-07T12:41:01;101325.00;;;24.30
15079;BMP180;6932;51.438;5.470;2023-08-07T12:43:28;101332.00;;;24.30
15079;BMP180;6932;51.438;5.470;2023-08-07T12:45:54;101323.00;;;24.30
15079;BMP180;6932;51.438;5.470;2023-08-07T12:48:20;101330.00;;;24.30
15079;BMP180;6932;51.438;5.470;2023-08-07T12:50:46;101325.00;;;24.30
15079;BMP180;6932;51.438;5.470;2023-08-07T12:53:11;101332.00;;;24.40
15079;BMP180;6932;51.438;5.470;2023-08-07T12:55:37;101334.00;;;24.40
15079;BMP180;6932;51.438;5.470;2023-08-07T12:58:03;101337.00;;;24.40
15079;BMP180;6932;51.438;5.470;2023-08-07T13:00:29;101340.00;;;24.30
15079;BMP180;6932;51.438;5.470;2023-08-07T13:02:54;101346.00;;;24.30
15079;BMP180;6932;51.438;5.470;2023-08-07T13:05:22;101341.00;;;24.20
15079;BMP180;6932;51.438;5.470;2023-08-07T13:07:48;101340.00;;;24.10
15079;BMP180;6932;51.438;5.470;2023-08-07T13:10:17;101338.00;;;23.90
15079;BMP180;6932;51.438;5.470;2023-08-07T13:12:44;101339.00;;;23.90
15079;BMP180;6932;51.438;5.470;2023-08-07T13:15:14;101337.00;;;23.80
15079;BMP180;6932;51.438;5.470;2023-08-07T13:17:42;101344.00;;;23.80
15079;BMP180;6932;51.438;5.470;2023-08-07T13:20:10;101336.00;;;23.80
15079;BMP180;6932;51.438;5.470;2023-08-07T13:22:37;101338.00;;;23.80
15079;BMP180;6932;51.438;5.470;2023-08-07T13:25:04;101345.00;;;23.80
15079;BMP180;6932;51.438;5.470;2023-08-07T13:27:35;101346.00;;;23.80
15079;BMP180;6932;51.438;5.470;2023-08-07T13:30:02;101342.00;;;23.70
15079;BMP180;6932;51.438;5.470;2023-08-07T13:32:29;101346.00;;;23.80
15079;BMP180;6932;51.438;5.470;2023-08-07T13:34:55;101336.00;;;23.80
15079;BMP180;6932;51.438;5.470;2023-08-07T13:37:21;101345.00;;;23.80
15079;BMP180;6932;51.438;5.470;2023-08-07T13:39:47;101334.00;;;23.80
15079;BMP180;6932;51.438;5.470;2023-08-07T13:42:15;101341.00;;;23.80
15079;BMP180;6932;51.438;5.470;2023-08-07T13:44:41;101337.00;;;23.80
15079;BMP180;6932;51.438;5.470;2023-08-07T13:47:06;101339.00;;;23.80
15079;BMP180;6932;51.438;5.470;2023-08-07T13:49:33;101341.00;;;23.90
15079;BMP180;6932;51.438;5.470;2023-08-07T13:51:59;101341.00;;;23.90
15079;BMP180;6932;51.438;5.470;2023-08-07T13:54:25;101343.00;;;23.90
15079;BMP180;6932;51.438;5.470;2023-08-07T13:56:50;101337.00;;;24.00
15079;BMP180;6932;51.438;5.470;2023-08-07T13:59:17;101345.00;;;24.10
15079;BMP180;6932;51.438;5.470;2023-08-07T14:01:42;101343.00;;;24.10
15079;BMP180;6932;51.438;5.470;2023-08-07T14:04:08;101338.00;;;24.20
15079;BMP180;6932;51.438;5.470;2023-08-07T14:06:34;101343.00;;;24.20
15079;BMP180;6932;51.438;5.470;2023-08-07T14:09:00;101325.00;;;24.30
15079;BMP180;6932;51.438;5.470;2023-08-07T14:11:25;101326.00;;;24.30
15079;BMP180;6932;51.438;5.470;2023-08-07T14:13:59;101343.00;;;24.30
15079;BMP180;6932;51.438;5.470;2023-08-07T14:16:28;101343.00;;;24.40